BAW2MC EGKK-EDDF
Flight info
| Callsign | BAW2MC |
|---|---|
| Flight time | 0h 53m |
| Altitude | 39000 |
| Route | MIMFO Y312 DVR UL9 KONAN UL607 SPI T180 NIVNU T847 IMCOM IMCOM2C |
| Aircraft | B77W/H-SDE1E2E3FGHIJ2J3J4J5M1RWXY/LB1D1 |
Departure
| Time | 2026-04-15 12:16 |
|---|---|
| Airport | London Gatwick Airport (EGKK) |
Arrival
| Time | 2026-04-15 13:09 |
|---|---|
| Airport | Frankfurt Main Airport (EDDF) |
| Time | Latitude | Longitude | Altitude | Speed | Heading |
|---|---|---|---|---|---|
| 2026-04-15 11:56 | 51.15587 | -0.16903 | 208 ft | 0 kts | 167° |
| 2026-04-15 12:07 | 51.15611 | -0.16912 | 214 ft | 4 kts | 167° |
| 2026-04-15 12:07 | 51.15636 | -0.16921 | 221 ft | 4 kts | 176° |
| 2026-04-15 12:08 | 51.15658 | -0.16912 | 219 ft | 4 kts | 237° |
| 2026-04-15 12:08 | 51.15665 | -0.16883 | 208 ft | 4 kts | 258° |
| 2026-04-15 12:08 | 51.15670 | -0.16844 | 208 ft | 2 kts | 258° |
| 2026-04-15 12:08 | 51.15670 | -0.16841 | 208 ft | 0 kts | 258° |
| 2026-04-15 12:10 | 51.15670 | -0.16842 | 208 ft | 0 kts | 258° |
| 2026-04-15 12:11 | 51.15667 | -0.16868 | 219 ft | 6 kts | 258° |
| 2026-04-15 12:11 | 51.15655 | -0.16956 | 214 ft | 8 kts | 258° |
| 2026-04-15 12:11 | 51.15642 | -0.17049 | 212 ft | 9 kts | 258° |
| 2026-04-15 12:11 | 51.15629 | -0.17144 | 218 ft | 9 kts | 258° |
| 2026-04-15 12:12 | 51.15614 | -0.17247 | 215 ft | 9 kts | 255° |
| 2026-04-15 12:12 | 51.15598 | -0.17347 | 214 ft | 9 kts | 255° |
| 2026-04-15 12:12 | 51.15566 | -0.17433 | 216 ft | 9 kts | 212° |
| 2026-04-15 12:12 | 51.15503 | -0.17423 | 217 ft | 9 kts | 166° |
| 2026-04-15 12:13 | 51.15440 | -0.17399 | 215 ft | 10 kts | 167° |
| 2026-04-15 12:13 | 51.15372 | -0.17374 | 215 ft | 10 kts | 167° |
| 2026-04-15 12:13 | 51.15307 | -0.17352 | 217 ft | 9 kts | 168° |
| 2026-04-15 12:13 | 51.15257 | -0.17317 | 219 ft | 7 kts | 134° |
| 2026-04-15 12:14 | 51.15247 | -0.17239 | 216 ft | 8 kts | 84° |
| 2026-04-15 12:14 | 51.15258 | -0.17140 | 213 ft | 13 kts | 79° |
| 2026-04-15 12:14 | 51.15278 | -0.16991 | 217 ft | 14 kts | 76° |
| 2026-04-15 12:14 | 51.15276 | -0.16845 | 218 ft | 14 kts | 131° |
| 2026-04-15 12:15 | 51.15187 | -0.16797 | 214 ft | 14 kts | 172° |
| 2026-04-15 12:15 | 51.15115 | -0.16878 | 218 ft | 16 kts | 248° |
| 2026-04-15 12:15 | 51.15043 | -0.17388 | 219 ft | 87 kts | 257° |
| 2026-04-15 12:15 | 51.14860 | -0.18692 | 209 ft | 156 kts | 258° |
| 2026-04-15 12:16 | 51.14614 | -0.20539 | 650 ft | 177 kts | 254° |
| 2026-04-15 12:16 | 51.14372 | -0.22398 | 1938 ft | 174 kts | 254° |
| 2026-04-15 12:16 | 51.14161 | -0.24396 | 3530 ft | 179 kts | 255° |
| 2026-04-15 12:16 | 51.13932 | -0.26312 | 4687 ft | 179 kts | 251° |
| 2026-04-15 12:17 | 51.13796 | -0.28354 | 5346 ft | 197 kts | 269° |
| 2026-04-15 12:17 | 51.14287 | -0.30510 | 6101 ft | 221 kts | 296° |
| 2026-04-15 12:17 | 51.15468 | -0.32219 | 6901 ft | 242 kts | 327° |
| 2026-04-15 12:17 | 51.17146 | -0.32762 | 7741 ft | 257 kts | 3° |
| 2026-04-15 12:18 | 51.18776 | -0.31749 | 8487 ft | 265 kts | 41° |
| 2026-04-15 12:18 | 51.19806 | -0.29354 | 9279 ft | 258 kts | 82° |
| 2026-04-15 12:18 | 51.20060 | -0.26573 | 10098 ft | 254 kts | 92° |
| 2026-04-15 12:18 | 51.20200 | -0.23862 | 10834 ft | 258 kts | 91° |
| 2026-04-15 12:19 | 51.20386 | -0.21061 | 11644 ft | 262 kts | 90° |
| 2026-04-15 12:19 | 51.20662 | -0.18156 | 12444 ft | 267 kts | 87° |
| 2026-04-15 12:19 | 51.21014 | -0.15221 | 13269 ft | 271 kts | 86° |
| 2026-04-15 12:19 | 51.21394 | -0.12251 | 14075 ft | 275 kts | 86° |
| 2026-04-15 12:20 | 51.21785 | -0.09248 | 14818 ft | 279 kts | 86° |
| 2026-04-15 12:20 | 51.22184 | -0.06198 | 15572 ft | 283 kts | 86° |
| 2026-04-15 12:20 | 51.22588 | -0.03099 | 16332 ft | 287 kts | 86° |
| 2026-04-15 12:20 | 51.22998 | 0.00045 | 17075 ft | 291 kts | 85° |
| 2026-04-15 12:21 | 51.23411 | 0.03213 | 17750 ft | 294 kts | 85° |
| 2026-04-15 12:21 | 51.24221 | 0.09461 | 19103 ft | 301 kts | 85° |
| 2026-04-15 12:21 | 51.24646 | 0.12750 | 19811 ft | 304 kts | 85° |
| 2026-04-15 12:22 | 51.25073 | 0.16070 | 20509 ft | 307 kts | 86° |
| 2026-04-15 12:22 | 51.25475 | 0.19427 | 21179 ft | 306 kts | 93° |
| 2026-04-15 12:22 | 51.25413 | 0.22775 | 21586 ft | 308 kts | 106° |
| 2026-04-15 12:22 | 51.25119 | 0.26303 | 21667 ft | 335 kts | 106° |
| 2026-04-15 12:23 | 51.24778 | 0.30158 | 21639 ft | 366 kts | 105° |
| 2026-04-15 12:23 | 51.24422 | 0.34351 | 21625 ft | 397 kts | 104° |
| 2026-04-15 12:23 | 51.24064 | 0.38882 | 21622 ft | 426 kts | 103° |
| 2026-04-15 12:23 | 51.23698 | 0.43716 | 21608 ft | 450 kts | 103° |
| 2026-04-15 12:24 | 51.23326 | 0.48698 | 21532 ft | 454 kts | 102° |
| 2026-04-15 12:24 | 51.22951 | 0.53711 | 21540 ft | 455 kts | 102° |
| 2026-04-15 12:24 | 51.22565 | 0.58719 | 21573 ft | 455 kts | 103° |
| 2026-04-15 12:24 | 51.22174 | 0.63726 | 21618 ft | 455 kts | 103° |
| 2026-04-15 12:25 | 51.21779 | 0.68739 | 21661 ft | 456 kts | 103° |
| 2026-04-15 12:25 | 51.21382 | 0.73757 | 21700 ft | 456 kts | 103° |
| 2026-04-15 12:25 | 51.20983 | 0.78767 | 21751 ft | 456 kts | 103° |
| 2026-04-15 12:25 | 51.20582 | 0.83789 | 21795 ft | 456 kts | 103° |
| 2026-04-15 12:26 | 51.20182 | 0.88797 | 21847 ft | 458 kts | 103° |
| 2026-04-15 12:26 | 51.19772 | 0.93863 | 22648 ft | 461 kts | 103° |
| 2026-04-15 12:26 | 51.19359 | 0.98944 | 23491 ft | 463 kts | 102° |
| 2026-04-15 12:26 | 51.18950 | 1.03961 | 24174 ft | 466 kts | 102° |
| 2026-04-15 12:27 | 51.18527 | 1.09117 | 24767 ft | 471 kts | 103° |
| 2026-04-15 12:27 | 51.18098 | 1.14327 | 25338 ft | 476 kts | 103° |
| 2026-04-15 12:27 | 51.17662 | 1.19586 | 25904 ft | 481 kts | 103° |
| 2026-04-15 12:27 | 51.17222 | 1.24890 | 26475 ft | 485 kts | 103° |
| 2026-04-15 12:28 | 51.16775 | 1.30244 | 27042 ft | 489 kts | 103° |
| 2026-04-15 12:28 | 51.16327 | 1.35629 | 27587 ft | 493 kts | 103° |
| 2026-04-15 12:28 | 51.15992 | 1.41103 | 28087 ft | 499 kts | 100° |
| 2026-04-15 12:28 | 51.15722 | 1.46647 | 28513 ft | 505 kts | 99° |
| 2026-04-15 12:29 | 51.15470 | 1.52256 | 28947 ft | 509 kts | 99° |
| 2026-04-15 12:29 | 51.15216 | 1.57905 | 29392 ft | 513 kts | 99° |
| 2026-04-15 12:29 | 51.14952 | 1.63579 | 29835 ft | 515 kts | 99° |
| 2026-04-15 12:29 | 51.14675 | 1.69285 | 30223 ft | 518 kts | 100° |
| 2026-04-15 12:30 | 51.14389 | 1.75016 | 30595 ft | 520 kts | 100° |
| 2026-04-15 12:30 | 51.14099 | 1.80738 | 31084 ft | 518 kts | 100° |
| 2026-04-15 12:30 | 51.13806 | 1.86442 | 31620 ft | 516 kts | 100° |
| 2026-04-15 12:30 | 51.13513 | 1.92124 | 32062 ft | 515 kts | 100° |
| 2026-04-15 12:31 | 51.13216 | 1.97810 | 32461 ft | 516 kts | 100° |
| 2026-04-15 12:31 | 51.12922 | 2.03387 | 32864 ft | 516 kts | 100° |
| 2026-04-15 12:31 | 51.12620 | 2.09069 | 33322 ft | 515 kts | 100° |
| 2026-04-15 12:31 | 51.12419 | 2.12829 | 33622 ft | 514 kts | 100° |
| 2026-04-15 12:32 | 51.12115 | 2.18493 | 34066 ft | 513 kts | 100° |
| 2026-04-15 12:32 | 51.11808 | 2.24158 | 34438 ft | 513 kts | 100° |
| 2026-04-15 12:32 | 51.11399 | 2.31625 | 34977 ft | 510 kts | 100° |
| 2026-04-15 12:32 | 51.11088 | 2.37244 | 35345 ft | 509 kts | 99° |
| 2026-04-15 12:33 | 51.10877 | 2.41036 | 35563 ft | 509 kts | 99° |
| 2026-04-15 12:33 | 51.10561 | 2.46653 | 35863 ft | 510 kts | 99° |
| 2026-04-15 12:33 | 51.10244 | 2.52254 | 36221 ft | 508 kts | 99° |
| 2026-04-15 12:33 | 51.09925 | 2.57853 | 36604 ft | 507 kts | 99° |
| 2026-04-15 12:34 | 51.09559 | 2.63405 | 36981 ft | 503 kts | 103° |
| 2026-04-15 12:34 | 51.08927 | 2.68855 | 37304 ft | 498 kts | 109° |
| 2026-04-15 12:34 | 51.08001 | 2.74130 | 37588 ft | 494 kts | 111° |
| 2026-04-15 12:34 | 51.07022 | 2.79366 | 37805 ft | 494 kts | 112° |
| 2026-04-15 12:35 | 51.06033 | 2.84597 | 37990 ft | 494 kts | 111° |
| 2026-04-15 12:35 | 51.05061 | 2.89774 | 38113 ft | 496 kts | 111° |
| 2026-04-15 12:35 | 51.04068 | 2.95113 | 38289 ft | 497 kts | 110° |
| 2026-04-15 12:35 | 51.03137 | 3.00162 | 38529 ft | 496 kts | 110° |
| 2026-04-15 12:36 | 51.02187 | 3.05340 | 38767 ft | 495 kts | 110° |
| 2026-04-15 12:36 | 51.00255 | 3.15845 | 38970 ft | 495 kts | 110° |
| 2026-04-15 12:37 | 50.98310 | 3.26350 | 39078 ft | 496 kts | 110° |
| 2026-04-15 12:37 | 50.96351 | 3.36857 | 39118 ft | 498 kts | 110° |
| 2026-04-15 12:38 | 50.94370 | 3.47425 | 39140 ft | 502 kts | 110° |
| 2026-04-15 12:38 | 50.92367 | 3.58060 | 39148 ft | 504 kts | 110° |
| 2026-04-15 12:39 | 50.90345 | 3.68701 | 39139 ft | 502 kts | 110° |
| 2026-04-15 12:39 | 50.88300 | 3.79275 | 39135 ft | 497 kts | 110° |
| 2026-04-15 12:40 | 50.86270 | 3.89681 | 39156 ft | 500 kts | 110° |
| 2026-04-15 12:40 | 50.84218 | 4.00169 | 39149 ft | 502 kts | 110° |
| 2026-04-15 12:41 | 50.82136 | 4.10770 | 39168 ft | 504 kts | 110° |
| 2026-04-15 12:41 | 50.80045 | 4.21362 | 39139 ft | 505 kts | 110° |
| 2026-04-15 12:42 | 50.77945 | 4.31939 | 39160 ft | 504 kts | 110° |
| 2026-04-15 12:42 | 50.75840 | 4.42487 | 39156 ft | 503 kts | 110° |
| 2026-04-15 12:43 | 50.73729 | 4.53009 | 39160 ft | 502 kts | 110° |
| 2026-04-15 12:43 | 50.71621 | 4.63510 | 39160 ft | 501 kts | 110° |
| 2026-04-15 12:44 | 50.69583 | 4.74025 | 39166 ft | 501 kts | 109° |
| 2026-04-15 12:44 | 50.67547 | 4.84537 | 39176 ft | 501 kts | 109° |
| 2026-04-15 12:45 | 50.65476 | 4.95040 | 39176 ft | 502 kts | 110° |
| 2026-04-15 12:45 | 50.63358 | 5.05392 | 39183 ft | 502 kts | 110° |
| 2026-04-15 12:46 | 50.61192 | 5.15866 | 39174 ft | 503 kts | 109° |
| 2026-04-15 12:46 | 50.59041 | 5.26264 | 39187 ft | 504 kts | 109° |
| 2026-04-15 12:47 | 50.56865 | 5.36759 | 39189 ft | 504 kts | 109° |
| 2026-04-15 12:47 | 50.54679 | 5.47245 | 39188 ft | 504 kts | 110° |
| 2026-04-15 12:48 | 50.52486 | 5.57717 | 39184 ft | 504 kts | 109° |
| 2026-04-15 12:48 | 50.50337 | 5.68208 | 39117 ft | 506 kts | 107° |
| 2026-04-15 12:48 | 50.49344 | 5.73523 | 38858 ft | 508 kts | 107° |
| 2026-04-15 12:49 | 50.48373 | 5.78856 | 38419 ft | 505 kts | 107° |
| 2026-04-15 12:49 | 50.47414 | 5.84132 | 37952 ft | 500 kts | 107° |
| 2026-04-15 12:49 | 50.46567 | 5.89389 | 37490 ft | 494 kts | 103° |
| 2026-04-15 12:49 | 50.45855 | 5.94645 | 36967 ft | 490 kts | 102° |
| 2026-04-15 12:50 | 50.45199 | 5.99882 | 36448 ft | 487 kts | 101° |
| 2026-04-15 12:50 | 50.44569 | 6.04976 | 35936 ft | 484 kts | 101° |
| 2026-04-15 12:50 | 50.43919 | 6.10147 | 35375 ft | 482 kts | 101° |
| 2026-04-15 12:50 | 50.43257 | 6.15290 | 34833 ft | 480 kts | 101° |
| 2026-04-15 12:51 | 50.42583 | 6.20421 | 34255 ft | 479 kts | 102° |
| 2026-04-15 12:51 | 50.41902 | 6.25529 | 33588 ft | 478 kts | 102° |
| 2026-04-15 12:51 | 50.41216 | 6.30631 | 32941 ft | 477 kts | 102° |
| 2026-04-15 12:51 | 50.40529 | 6.35712 | 32300 ft | 476 kts | 102° |
| 2026-04-15 12:52 | 50.39843 | 6.40779 | 31671 ft | 475 kts | 102° |
| 2026-04-15 12:52 | 50.39156 | 6.45833 | 31065 ft | 473 kts | 102° |
| 2026-04-15 12:52 | 50.38470 | 6.50872 | 30473 ft | 472 kts | 102° |
| 2026-04-15 12:52 | 50.37785 | 6.55890 | 29684 ft | 472 kts | 102° |
| 2026-04-15 12:53 | 50.37105 | 6.60861 | 28671 ft | 458 kts | 102° |
| 2026-04-15 12:53 | 50.36449 | 6.65637 | 27741 ft | 441 kts | 102° |
| 2026-04-15 12:53 | 50.35813 | 6.70253 | 26857 ft | 426 kts | 102° |
| 2026-04-15 12:53 | 50.35196 | 6.74717 | 26003 ft | 414 kts | 102° |
| 2026-04-15 12:54 | 50.34582 | 6.79152 | 25306 ft | 419 kts | 102° |
| 2026-04-15 12:54 | 50.33958 | 6.83632 | 24600 ft | 424 kts | 103° |
| 2026-04-15 12:54 | 50.33216 | 6.88047 | 23896 ft | 426 kts | 111° |
| 2026-04-15 12:54 | 50.32001 | 6.92285 | 23108 ft | 429 kts | 118° |
| 2026-04-15 12:55 | 50.30642 | 6.96451 | 22313 ft | 431 kts | 118° |
| 2026-04-15 12:55 | 50.29336 | 7.00572 | 21538 ft | 433 kts | 117° |
| 2026-04-15 12:55 | 50.28037 | 7.04829 | 20768 ft | 434 kts | 116° |
| 2026-04-15 12:55 | 50.26759 | 7.09109 | 20022 ft | 435 kts | 116° |
| 2026-04-15 12:56 | 50.25484 | 7.13399 | 19288 ft | 435 kts | 116° |
| 2026-04-15 12:56 | 50.24208 | 7.17682 | 18567 ft | 435 kts | 116° |
| 2026-04-15 12:56 | 50.22930 | 7.21954 | 17756 ft | 434 kts | 116° |
| 2026-04-15 12:56 | 50.21662 | 7.26216 | 16939 ft | 426 kts | 115° |
| 2026-04-15 12:57 | 50.20536 | 7.30320 | 16141 ft | 398 kts | 114° |
| 2026-04-15 12:57 | 50.19517 | 7.34194 | 15422 ft | 374 kts | 113° |
| 2026-04-15 12:57 | 50.18569 | 7.37852 | 14720 ft | 355 kts | 113° |
| 2026-04-15 12:57 | 50.17626 | 7.41298 | 14051 ft | 338 kts | 118° |
| 2026-04-15 12:58 | 50.16517 | 7.44439 | 13307 ft | 324 kts | 122° |
| 2026-04-15 12:58 | 50.15387 | 7.47410 | 12599 ft | 313 kts | 123° |
| 2026-04-15 12:58 | 50.14285 | 7.50270 | 12017 ft | 302 kts | 123° |
| 2026-04-15 12:58 | 50.13213 | 7.53026 | 11460 ft | 294 kts | 123° |
| 2026-04-15 12:59 | 50.11069 | 7.58490 | 10412 ft | 299 kts | 123° |
| 2026-04-15 12:59 | 50.09961 | 7.61301 | 9907 ft | 308 kts | 123° |
| 2026-04-15 12:59 | 50.08834 | 7.64168 | 9340 ft | 313 kts | 123° |
| 2026-04-15 13:00 | 50.07697 | 7.67081 | 8786 ft | 316 kts | 122° |
| 2026-04-15 13:00 | 50.06682 | 7.70124 | 8257 ft | 318 kts | 115° |
| 2026-04-15 13:00 | 50.05842 | 7.73237 | 8041 ft | 309 kts | 114° |
| 2026-04-15 13:00 | 50.05057 | 7.76306 | 7840 ft | 301 kts | 113° |
| 2026-04-15 13:01 | 50.04306 | 7.79299 | 7628 ft | 293 kts | 113° |
| 2026-04-15 13:01 | 50.03569 | 7.82216 | 7468 ft | 286 kts | 113° |
| 2026-04-15 13:01 | 50.02849 | 7.85060 | 7274 ft | 280 kts | 113° |
| 2026-04-15 13:01 | 50.02144 | 7.87845 | 7108 ft | 274 kts | 113° |
| 2026-04-15 13:02 | 50.01450 | 7.90583 | 6922 ft | 271 kts | 113° |
| 2026-04-15 13:02 | 50.00758 | 7.93321 | 6769 ft | 273 kts | 113° |
| 2026-04-15 13:02 | 50.00062 | 7.96079 | 6597 ft | 275 kts | 113° |
| 2026-04-15 13:02 | 49.99362 | 7.98845 | 6435 ft | 275 kts | 113° |
| 2026-04-15 13:03 | 49.98681 | 8.01560 | 6189 ft | 274 kts | 111° |
| 2026-04-15 13:03 | 49.98175 | 8.04430 | 5916 ft | 276 kts | 104° |
| 2026-04-15 13:03 | 49.97771 | 8.07341 | 5634 ft | 274 kts | 103° |
| 2026-04-15 13:03 | 49.97383 | 8.10218 | 5350 ft | 271 kts | 103° |
| 2026-04-15 13:04 | 49.96994 | 8.13064 | 5074 ft | 267 kts | 103° |
| 2026-04-15 13:04 | 49.96619 | 8.15784 | 4743 ft | 248 kts | 103° |
| 2026-04-15 13:04 | 49.96424 | 8.18328 | 4521 ft | 230 kts | 85° |
| 2026-04-15 13:04 | 49.96810 | 8.20755 | 4251 ft | 234 kts | 75° |
| 2026-04-15 13:05 | 49.97341 | 8.23174 | 3926 ft | 238 kts | 71° |
| 2026-04-15 13:05 | 49.97917 | 8.25587 | 3609 ft | 239 kts | 70° |
| 2026-04-15 13:05 | 49.98503 | 8.28013 | 3274 ft | 239 kts | 70° |
| 2026-04-15 13:05 | 49.99069 | 8.30365 | 2947 ft | 227 kts | 70° |
| 2026-04-15 13:06 | 49.99604 | 8.32602 | 2650 ft | 215 kts | 70° |
| 2026-04-15 13:06 | 50.00111 | 8.34711 | 2400 ft | 201 kts | 71° |
| 2026-04-15 13:06 | 50.00586 | 8.36692 | 2144 ft | 190 kts | 70° |
| 2026-04-15 13:06 | 50.01036 | 8.38573 | 1856 ft | 181 kts | 70° |
| 2026-04-15 13:07 | 50.01464 | 8.40358 | 1633 ft | 171 kts | 71° |
| 2026-04-15 13:07 | 50.01868 | 8.42040 | 1382 ft | 160 kts | 71° |
| 2026-04-15 13:07 | 50.02235 | 8.43579 | 1137 ft | 145 kts | 70° |
| 2026-04-15 13:07 | 50.02569 | 8.44970 | 962 ft | 134 kts | 69° |
| 2026-04-15 13:08 | 50.02896 | 8.46338 | 818 ft | 138 kts | 69° |
| 2026-04-15 13:08 | 50.03229 | 8.47734 | 618 ft | 135 kts | 68° |
| 2026-04-15 13:08 | 50.03557 | 8.49089 | 465 ft | 134 kts | 66° |
| 2026-04-15 13:08 | 50.03884 | 8.50452 | 327 ft | 132 kts | 69° |
| 2026-04-15 13:09 | 50.04170 | 8.51641 | 334 ft | 97 kts | 69° |
| 2026-04-15 13:09 | 50.04350 | 8.52396 | 350 ft | 52 kts | 71° |
| 2026-04-15 13:09 | 50.04392 | 8.52723 | 358 ft | 16 kts | 91° |
| 2026-04-15 13:09 | 50.04383 | 8.52894 | 363 ft | 16 kts | 97° |
| 2026-04-15 13:10 | 50.04366 | 8.53064 | 364 ft | 16 kts | 99° |
| 2026-04-15 13:10 | 50.04350 | 8.53233 | 367 ft | 16 kts | 92° |
| 2026-04-15 13:10 | 50.04374 | 8.53400 | 379 ft | 16 kts | 71° |
| 2026-04-15 13:10 | 50.04397 | 8.53567 | 380 ft | 16 kts | 85° |
| 2026-04-15 13:11 | 50.04407 | 8.53738 | 380 ft | 16 kts | 84° |
| 2026-04-15 13:11 | 50.04418 | 8.53909 | 380 ft | 16 kts | 83° |
| 2026-04-15 13:11 | 50.04431 | 8.54079 | 380 ft | 16 kts | 84° |
| 2026-04-15 13:11 | 50.04443 | 8.54251 | 380 ft | 16 kts | 83° |
| 2026-04-15 13:12 | 50.04452 | 8.54431 | 376 ft | 20 kts | 91° |
| 2026-04-15 13:12 | 50.04423 | 8.54605 | 372 ft | 21 kts | 118° |
| 2026-04-15 13:12 | 50.04334 | 8.54751 | 370 ft | 15 kts | 148° |
| 2026-04-15 13:12 | 50.04229 | 8.54819 | 362 ft | 18 kts | 160° |
| 2026-04-15 13:13 | 50.04109 | 8.54888 | 359 ft | 18 kts | 160° |
| 2026-04-15 13:13 | 50.04036 | 8.54937 | 364 ft | 8 kts | 139° |
| 2026-04-15 13:13 | 50.04025 | 8.55030 | 366 ft | 12 kts | 78° |
| 2026-04-15 13:13 | 50.04054 | 8.55176 | 365 ft | 15 kts | 71° |
| 2026-04-15 13:14 | 50.04091 | 8.55326 | 364 ft | 16 kts | 68° |
| 2026-04-15 13:14 | 50.04138 | 8.55511 | 359 ft | 21 kts | 69° |
| 2026-04-15 13:14 | 50.04189 | 8.55729 | 366 ft | 21 kts | 70° |
| 2026-04-15 13:14 | 50.04240 | 8.55940 | 364 ft | 18 kts | 69° |
| 2026-04-15 13:15 | 50.04285 | 8.56127 | 368 ft | 18 kts | 70° |
| 2026-04-15 13:15 | 50.04330 | 8.56315 | 366 ft | 18 kts | 70° |
| 2026-04-15 13:15 | 50.04374 | 8.56502 | 366 ft | 18 kts | 70° |
| 2026-04-15 13:15 | 50.04419 | 8.56689 | 364 ft | 18 kts | 70° |
| 2026-04-15 13:16 | 50.04463 | 8.56877 | 369 ft | 18 kts | 70° |
| 2026-04-15 13:16 | 50.04509 | 8.57070 | 369 ft | 20 kts | 70° |
| 2026-04-15 13:16 | 50.04556 | 8.57268 | 366 ft | 20 kts | 70° |
| 2026-04-15 13:16 | 50.04603 | 8.57466 | 368 ft | 20 kts | 70° |
| 2026-04-15 13:17 | 50.04651 | 8.57665 | 368 ft | 20 kts | 69° |
| 2026-04-15 13:17 | 50.04699 | 8.57861 | 369 ft | 17 kts | 66° |
| 2026-04-15 13:17 | 50.04779 | 8.57991 | 368 ft | 17 kts | 49° |
| 2026-04-15 13:17 | 50.04828 | 8.58155 | 368 ft | 17 kts | 69° |
| 2026-04-15 13:18 | 50.04868 | 8.58325 | 368 ft | 17 kts | 70° |
| 2026-04-15 13:18 | 50.04900 | 8.58461 | 370 ft | 4 kts | 65° |
| 2026-04-15 13:18 | 50.04922 | 8.58473 | 371 ft | 4 kts | 346° |
| 2026-04-15 13:18 | 50.04953 | 8.58455 | 370 ft | 5 kts | 340° |
| 2026-04-15 13:19 | 50.04980 | 8.58440 | 369 ft | 3 kts | 340° |